createdAt,value
2023-04-28T00:00:25.874Z,9.30
2023-04-28T00:04:32.693Z,9.20
2023-04-28T00:08:39.437Z,9.10
2023-04-28T00:12:46.100Z,9.10
2023-04-28T00:16:52.925Z,9.00
2023-04-28T00:21:01.516Z,9.00
2023-04-28T00:25:09.018Z,9.50
2023-04-28T00:29:15.656Z,8.80
2023-04-28T00:33:22.288Z,8.80
2023-04-28T00:37:28.965Z,8.70
2023-04-28T00:41:35.915Z,8.70
2023-04-28T00:45:42.639Z,8.70
2023-04-28T00:49:49.657Z,8.70
2023-04-28T00:53:57.486Z,8.70
2023-04-28T00:58:05.902Z,8.60
2023-04-28T01:02:19.239Z,8.60
2023-04-28T01:06:26.788Z,8.60
2023-04-28T01:10:33.505Z,8.60
2023-04-28T01:14:40.447Z,8.60
2023-04-28T01:18:48.186Z,8.60
2023-04-28T01:22:54.873Z,8.60
2023-04-28T01:27:01.604Z,8.50
2023-04-28T01:31:08.287Z,8.40
2023-04-28T01:35:14.981Z,8.40
2023-04-28T01:39:21.699Z,8.30
2023-04-28T01:43:28.994Z,8.30
2023-04-28T01:47:35.869Z,8.30
2023-04-28T01:51:42.963Z,8.30
2023-04-28T01:55:49.957Z,8.40
2023-04-28T01:59:56.778Z,8.30
2023-04-28T02:04:03.600Z,8.40
2023-04-28T02:08:10.388Z,8.40
2023-04-28T02:12:17.582Z,8.60
2023-04-28T02:16:24.366Z,8.40
2023-04-28T02:20:33.048Z,8.50
2023-04-28T02:24:39.987Z,8.50
2023-04-28T02:28:46.666Z,8.60
2023-04-28T02:32:53.328Z,8.60
2023-04-28T02:37:00.021Z,8.60
2023-04-28T02:41:09.266Z,8.50
2023-04-28T02:45:16.349Z,8.60
2023-04-28T02:49:23.073Z,8.60
2023-04-28T02:53:29.750Z,8.60
2023-04-28T02:57:36.417Z,8.60
2023-04-28T03:01:43.098Z,8.60
2023-04-28T03:05:49.788Z,8.50
2023-04-28T03:09:56.510Z,8.50
2023-04-28T03:14:03.175Z,8.50
2023-04-28T03:18:09.880Z,8.40
2023-04-28T03:22:16.726Z,8.40
2023-04-28T03:26:23.405Z,8.40
2023-04-28T03:30:30.177Z,8.60
2023-04-28T03:34:36.864Z,8.50
2023-04-28T03:38:43.972Z,8.60
2023-04-28T03:42:50.655Z,8.60
2023-04-28T03:46:57.381Z,8.60
2023-04-28T03:51:04.296Z,8.60
2023-04-28T03:55:11.090Z,8.60
2023-04-28T03:59:17.956Z,8.70
2023-04-28T04:03:26.304Z,8.70
2023-04-28T04:07:33.363Z,8.70
2023-04-28T04:11:40.147Z,8.70
2023-04-28T04:15:46.885Z,8.80
2023-04-28T04:19:53.599Z,8.80
2023-04-28T04:24:00.367Z,8.90
2023-04-28T04:28:07.014Z,8.90
2023-04-28T04:32:13.681Z,9.10
2023-04-28T04:36:20.356Z,9.00
2023-04-28T04:40:27.377Z,9.00
2023-04-28T04:44:34.055Z,9.00
2023-04-28T04:48:40.726Z,9.00
2023-04-28T04:52:47.479Z,9.10
2023-04-28T04:56:54.202Z,9.20
2023-04-28T05:01:00.868Z,9.30
2023-04-28T05:05:19.663Z,9.40
2023-04-28T05:09:27.717Z,9.50
2023-04-28T05:13:34.396Z,9.50
2023-04-28T05:17:41.188Z,9.60
2023-04-28T05:21:48.358Z,9.70
2023-04-28T05:25:55.098Z,9.70
2023-04-28T05:30:02.044Z,9.60
2023-04-28T05:34:08.732Z,9.60
2023-04-28T05:38:15.671Z,9.60
2023-04-28T05:42:22.348Z,9.70
2023-04-28T05:46:30.989Z,9.70
2023-04-28T05:50:39.062Z,9.80
2023-04-28T05:54:45.964Z,9.80
2023-04-28T05:58:52.699Z,9.80
2023-04-28T06:02:59.502Z,9.80
2023-04-28T06:07:06.511Z,9.80
2023-04-28T06:11:13.183Z,9.90
2023-04-28T06:15:19.878Z,9.90
2023-04-28T06:19:27.033Z,9.90
2023-04-28T06:23:33.899Z,10.00
2023-04-28T06:27:40.764Z,10.00
2023-04-28T06:31:47.463Z,10.10
2023-04-28T06:35:54.161Z,10.20
2023-04-28T06:40:01.031Z,10.40
2023-04-28T06:44:07.695Z,10.40
2023-04-28T06:48:14.581Z,10.50
2023-04-28T06:52:33.067Z,10.50
2023-04-28T06:56:43.737Z,10.50
2023-04-28T07:00:50.688Z,10.60
2023-04-28T07:04:57.491Z,10.50
2023-04-28T07:09:04.587Z,10.40
2023-04-28T07:13:11.624Z,10.90
2023-04-28T07:17:18.738Z,10.40
2023-04-28T07:21:25.833Z,10.50
2023-04-28T07:25:32.674Z,10.60
2023-04-28T07:29:39.320Z,10.90
2023-04-28T07:33:46.098Z,11.20
2023-04-28T07:37:53.128Z,11.40
2023-04-28T07:42:00.746Z,11.70
2023-04-28T07:46:08.483Z,12.10
2023-04-28T07:50:16.167Z,12.60
2023-04-28T07:54:23.419Z,12.90
2023-04-28T07:58:31.055Z,13.20
2023-04-28T08:02:37.793Z,13.60
2023-04-28T08:06:44.510Z,13.80
2023-04-28T08:10:52.340Z,14.00
2023-04-28T08:14:59.021Z,14.00
2023-04-28T08:19:05.889Z,14.10
2023-04-28T08:23:12.722Z,14.30
2023-04-28T08:27:19.472Z,14.50
2023-04-28T08:31:26.247Z,14.40
2023-04-28T08:35:33.158Z,14.40
2023-04-28T08:39:39.809Z,14.20
2023-04-28T08:43:46.476Z,14.20
2023-04-28T08:47:55.084Z,14.50
2023-04-28T08:52:01.870Z,14.90
2023-04-28T08:56:10.831Z,15.20
2023-04-28T09:00:18.040Z,15.30
2023-04-28T09:04:25.058Z,15.40
2023-04-28T09:08:32.284Z,15.60
2023-04-28T09:12:38.982Z,15.80
2023-04-28T09:16:45.956Z,15.80
2023-04-28T09:20:52.765Z,15.90
2023-04-28T09:25:11.482Z,15.60
2023-04-28T09:29:18.541Z,15.50
2023-04-28T09:33:26.021Z,15.20
2023-04-28T09:37:33.462Z,15.10
2023-04-28T09:41:44.091Z,14.90
2023-04-28T09:45:50.867Z,14.90
2023-04-28T09:49:59.847Z,14.90
2023-04-28T09:54:07.190Z,14.90
2023-04-28T09:58:15.050Z,15.00
2023-04-28T10:02:42.803Z,15.20
2023-04-28T10:06:48.891Z,15.20
2023-04-28T10:10:56.832Z,15.20
2023-04-28T10:15:04.838Z,15.30
2023-04-28T10:19:12.217Z,15.30
2023-04-28T10:23:31.823Z,15.30
2023-04-28T10:27:46.940Z,15.40
2023-04-28T10:32:15.751Z,14.40
2023-04-28T10:36:55.857Z,15.40
2023-04-28T10:41:03.414Z,15.40
2023-04-28T10:45:10.118Z,15.30
2023-04-28T10:49:16.789Z,15.50
2023-04-28T10:53:44.022Z,15.60
2023-04-28T10:58:16.862Z,15.70
2023-04-28T11:02:39.588Z,15.50
2023-04-28T11:07:21.477Z,15.60
2023-04-28T11:11:34.789Z,15.30
2023-04-28T11:15:41.701Z,15.30
2023-04-28T11:19:51.376Z,15.20
2023-04-28T11:23:58.836Z,15.20
2023-04-28T11:28:07.256Z,15.20
2023-04-28T11:32:14.032Z,15.30
2023-04-28T11:36:29.624Z,15.40
2023-04-28T11:40:36.413Z,15.50
2023-04-28T11:44:53.281Z,15.50
2023-04-28T11:49:02.424Z,15.70
2023-04-28T11:53:09.089Z,15.80
2023-04-28T11:57:21.019Z,15.90
2023-04-28T12:01:27.713Z,16.00
2023-04-28T12:05:38.766Z,16.00
2023-04-28T12:10:10.114Z,16.00
2023-04-28T12:14:17.012Z,16.00
2023-04-28T12:18:23.952Z,16.10
2023-04-28T12:22:31.582Z,17.40
2023-04-28T12:26:38.393Z,16.00
2023-04-28T12:30:45.425Z,16.90
2023-04-28T12:34:52.469Z,16.00
2023-04-28T12:38:59.215Z,16.20
2023-04-28T12:43:05.866Z,16.30
2023-04-28T12:47:12.534Z,16.60
2023-04-28T12:51:19.219Z,16.60
2023-04-28T12:55:27.119Z,16.40
2023-04-28T12:59:33.846Z,16.10
2023-04-28T13:03:40.671Z,15.80
2023-04-28T13:07:49.402Z,15.80
2023-04-28T13:11:56.087Z,15.90
2023-04-28T13:16:03.663Z,16.10
2023-04-28T13:20:10.710Z,16.50
2023-04-28T13:24:17.360Z,17.10
2023-04-28T13:28:24.161Z,17.60
2023-04-28T13:32:31.738Z,17.90
2023-04-28T13:36:38.634Z,18.00
2023-04-28T13:40:45.481Z,18.20
2023-04-28T13:44:52.350Z,17.90
2023-04-28T13:48:59.140Z,17.80
2023-04-28T13:53:05.808Z,17.40
2023-04-28T13:57:13.633Z,17.00
2023-04-28T14:01:20.754Z,16.80
2023-04-28T14:05:29.696Z,16.60
2023-04-28T14:09:40.489Z,16.90
2023-04-28T14:13:47.139Z,17.20
2023-04-28T14:17:53.890Z,17.40
2023-04-28T14:22:01.131Z,17.50
2023-04-28T14:26:07.845Z,17.40
2023-04-28T14:30:14.491Z,17.40
2023-04-28T14:34:21.233Z,17.20
2023-04-28T14:38:29.502Z,17.10
2023-04-28T14:42:37.273Z,16.80
2023-04-28T14:46:46.189Z,16.70
2023-04-28T14:50:52.891Z,16.60
2023-04-28T14:55:00.228Z,16.60
2023-04-28T14:59:06.941Z,16.60
2023-04-28T15:03:14.513Z,17.00
2023-04-28T15:07:22.076Z,17.10
2023-04-28T15:11:28.720Z,16.90
2023-04-28T15:15:35.956Z,16.80
2023-04-28T15:19:42.858Z,16.90
2023-04-28T15:23:49.584Z,16.30
2023-04-28T15:27:56.235Z,15.90
2023-04-28T15:32:02.945Z,15.80
2023-04-28T15:36:09.778Z,16.40
2023-04-28T15:40:17.985Z,16.10
2023-04-28T15:44:24.669Z,15.50
2023-04-28T15:48:31.333Z,15.50
2023-04-28T15:52:40.174Z,15.20
2023-04-28T15:56:46.973Z,15.00
2023-04-28T16:00:53.845Z,14.70
2023-04-28T16:05:02.498Z,14.60
2023-04-28T16:09:09.195Z,14.60
2023-04-28T16:13:15.952Z,14.60
2023-04-28T16:17:25.311Z,14.90
2023-04-28T16:21:33.303Z,14.80
2023-04-28T16:25:41.143Z,14.70
2023-04-28T16:29:47.853Z,14.80
2023-04-28T16:33:55.212Z,14.90
2023-04-28T16:38:01.890Z,14.80
2023-04-28T16:42:08.571Z,14.80
2023-04-28T16:46:15.832Z,14.80
2023-04-28T16:50:22.557Z,14.70
2023-04-28T16:54:30.441Z,14.60
2023-04-28T16:58:37.176Z,14.50
2023-04-28T17:02:44.135Z,14.50
2023-04-28T17:06:51.759Z,14.50
2023-04-28T17:11:00.198Z,14.50
2023-04-28T17:15:08.000Z,14.40
2023-04-28T17:19:14.693Z,14.40
2023-04-28T17:23:21.846Z,14.30
2023-04-28T17:27:28.602Z,14.30
2023-04-28T17:31:38.243Z,14.30
2023-04-28T17:35:45.755Z,14.10
2023-04-28T17:39:52.697Z,14.00
2023-04-28T17:43:59.634Z,14.00
2023-04-28T17:48:06.505Z,13.90
2023-04-28T17:52:15.414Z,13.90
2023-04-28T17:56:22.296Z,13.80
2023-04-28T18:00:29.088Z,13.70
2023-04-28T18:04:36.053Z,13.70
2023-04-28T18:08:42.801Z,13.50
2023-04-28T18:12:51.606Z,13.60
2023-04-28T18:17:00.441Z,13.50
2023-04-28T18:21:07.108Z,13.50
2023-04-28T18:25:16.813Z,13.40
2023-04-28T18:29:23.513Z,13.40
2023-04-28T18:33:30.170Z,13.30
2023-04-28T18:37:37.161Z,13.20
2023-04-28T18:41:44.240Z,13.20
2023-04-28T18:45:50.990Z,13.10
2023-04-28T18:49:57.984Z,13.10
2023-04-28T18:54:05.759Z,12.90
2023-04-28T18:58:15.010Z,13.30
2023-04-28T19:02:21.766Z,12.80
2023-04-28T19:06:28.601Z,12.80
2023-04-28T19:10:36.557Z,12.80
2023-04-28T19:14:43.378Z,12.90
2023-04-28T19:18:50.047Z,12.90
2023-04-28T19:22:56.921Z,12.90
2023-04-28T19:27:03.625Z,12.90
2023-04-28T19:31:10.952Z,12.90
2023-04-28T19:35:17.664Z,12.80
2023-04-28T19:39:24.344Z,12.80
2023-04-28T19:43:31.617Z,12.80
2023-04-28T19:47:38.559Z,12.70
2023-04-28T19:51:45.435Z,12.60
2023-04-28T19:55:52.193Z,12.60
2023-04-28T19:59:58.886Z,12.60
2023-04-28T20:04:05.602Z,12.50
2023-04-28T20:08:12.808Z,12.40
2023-04-28T20:12:19.528Z,12.40
2023-04-28T20:16:27.042Z,12.30
2023-04-28T20:20:34.282Z,12.30
2023-04-28T20:24:41.030Z,12.30
2023-04-28T20:28:48.456Z,12.30
2023-04-28T20:32:55.133Z,12.40
2023-04-28T20:37:06.434Z,12.30
2023-04-28T20:41:13.110Z,12.30
2023-04-28T20:45:20.274Z,12.30
2023-04-28T20:49:28.264Z,12.20
2023-04-28T20:53:34.927Z,12.10
2023-04-28T20:57:41.715Z,12.10
2023-04-28T21:01:48.599Z,12.10
2023-04-28T21:05:56.040Z,12.10
2023-04-28T21:10:02.808Z,12.00
2023-04-28T21:14:10.050Z,12.00
2023-04-28T21:18:16.997Z,12.00
2023-04-28T21:22:24.974Z,11.90
2023-04-28T21:26:31.777Z,11.80
2023-04-28T21:30:38.458Z,11.80
2023-04-28T21:34:48.938Z,11.90
2023-04-28T21:38:55.640Z,11.70
2023-04-28T21:43:02.410Z,11.60
2023-04-28T21:47:09.130Z,11.60
2023-04-28T21:51:16.625Z,11.60
2023-04-28T21:55:23.268Z,11.50
2023-04-28T21:59:30.093Z,11.30
2023-04-28T22:03:38.834Z,11.20
2023-04-28T22:07:45.624Z,11.10
2023-04-28T22:11:52.276Z,11.00
2023-04-28T22:15:59.288Z,10.90
2023-04-28T22:20:06.795Z,10.90
2023-04-28T22:24:14.045Z,10.90
2023-04-28T22:28:20.860Z,10.90
2023-04-28T22:32:27.571Z,10.90
2023-04-28T22:36:34.247Z,10.80
2023-04-28T22:40:41.041Z,10.70
2023-04-28T22:44:47.735Z,10.70
2023-04-28T22:48:54.496Z,10.60
2023-04-28T22:53:01.179Z,10.60
2023-04-28T22:57:08.025Z,10.60
2023-04-28T23:01:14.834Z,10.60
2023-04-28T23:05:21.604Z,10.70
2023-04-28T23:09:28.284Z,10.50
2023-04-28T23:13:35.255Z,10.60
2023-04-28T23:17:42.171Z,10.60
2023-04-28T23:21:48.922Z,10.60
2023-04-28T23:25:56.687Z,10.50
2023-04-28T23:30:03.554Z,10.60
2023-04-28T23:34:10.237Z,10.50
2023-04-28T23:38:17.022Z,10.50
2023-04-28T23:42:24.222Z,10.40
2023-04-28T23:46:30.922Z,10.40
2023-04-28T23:50:37.589Z,10.40
2023-04-28T23:54:44.280Z,10.40
2023-04-28T23:58:51.267Z,10.40
